Time;durP1;ratioP1;P1;durP2;ratioP2;P2;SDS_P1;SDS_P2;PMS_P1;PMS_P2;Temp;Humidity;BMP_temperature;BMP_pressure;BME280_temperature;BME280_humidity;BME280_pressure;Samples;Min_cycle;Max_cycle;Signal;HPM_P1;HPM_P2
2021/12/21 00:02:32;;;;;;;;;;;15.60;35.60;;;;;;8301994;28;20290;-49
2021/12/21 00:06:33;;;;;;;;;;;15.70;35.70;;;;;;8302052;28;19917;-50
2021/12/21 00:10:34;;;;;;;;;;;15.60;35.60;;;;;;8301320;28;20493;-49
2021/12/21 00:15:00;;;;;;;;;;;15.60;35.70;;;;;;8302074;28;19956;-48
2021/12/21 00:27:15;;;;;;;;;;;15.60;35.60;;;;;;8301845;28;19921;-48
2021/12/21 00:31:16;;;;;;;;;;;15.60;35.60;;;;;;8300762;28;19930;-48
2021/12/21 00:35:16;;;;;;;;;;;15.70;35.60;;;;;;8301386;28;19917;-48
2021/12/21 00:39:17;;;;;;;;;;;15.60;36.10;;;;;;8301256;28;19913;-49
2021/12/21 00:43:17;;;;;;;;;;;15.60;35.50;;;;;;8300850;28;19913;-50
2021/12/21 00:47:18;;;;;;;;;;;15.70;35.50;;;;;;8300884;28;19967;-51
2021/12/21 00:51:19;;;;;;;;;;;15.70;35.50;;;;;;8300215;28;19928;-48
2021/12/21 00:55:21;;;;;;;;;;;15.70;35.40;;;;;;8300276;28;19918;-52
2021/12/21 00:59:21;;;;;;;;;;;15.70;35.50;;;;;;8300464;28;20919;-51
2021/12/21 01:03:22;;;;;;;;;;;15.70;35.40;;;;;;8300874;28;19944;-51
2021/12/21 01:07:30;;;;;;;;;;;15.60;35.40;;;;;;8299828;28;19914;-50
2021/12/21 01:11:35;;;;;;;;;;;15.70;35.40;;;;;;8302133;28;20482;-50
2021/12/21 01:20:05;;;;;;;;;;;15.60;35.40;;;;;;8299996;28;19920;-48
2021/12/21 01:24:25;;;;;;;;;;;15.60;35.40;;;;;;8300094;28;19918;-50
2021/12/21 01:28:46;;;;;;;;;;;15.60;35.40;;;;;;8299296;28;20282;-47
2021/12/21 01:36:59;;;;;;;;;;;15.60;35.50;;;;;;8299569;28;20048;-48
2021/12/21 01:49:45;;;;;;;;;;;15.50;35.40;;;;;;8299831;28;20071;-48
2021/12/21 01:53:46;;;;;;;;;;;15.50;35.50;;;;;;8298907;28;19929;-48
2021/12/21 01:57:46;;;;;;;;;;;15.50;35.50;;;;;;8298614;28;19917;-48
2021/12/21 02:01:47;;;;;;;;;;;15.50;35.40;;;;;;8297527;28;20393;-48
2021/12/21 02:05:47;;;;;;;;;;;15.50;35.40;;;;;;8298312;28;19964;-47
2021/12/21 02:09:48;;;;;;;;;;;15.50;35.40;;;;;;8297786;28;19914;-50
2021/12/21 02:13:50;;;;;;;;;;;15.50;35.50;;;;;;8297995;28;20370;-47
2021/12/21 02:18:26;;;;;;;;;;;15.50;35.50;;;;;;8298301;28;19918;-47
2021/12/21 02:22:20;;;;;;;;;;;15.50;35.50;;;;;;8297492;28;19932;-48
2021/12/21 02:30:33;;;;;;;;;;;15.50;35.40;;;;;;8302340;28;19926;-48
2021/12/21 02:34:33;;;;;;;;;;;15.50;35.40;;;;;;8297439;28;19913;-47
2021/12/21 02:38:34;;;;;;;;;;;15.50;35.40;;;;;;8297614;28;20390;-47
2021/12/21 02:42:34;;;;;;;;;;;15.50;35.40;;;;;;8297668;28;20369;-48
2021/12/21 02:46:38;;;;;;;;;;;15.50;35.30;;;;;;8297088;28;19932;-47
2021/12/21 02:50:39;;;;;;;;;;;15.50;35.30;;;;;;8297636;28;20009;-47
2021/12/21 02:54:40;;;;;;;;;;;15.50;35.30;;;;;;8297445;28;19918;-47
2021/12/21 02:58:40;;;;;;;;;;;15.50;35.30;;;;;;8296906;28;19917;-47
2021/12/21 03:02:41;;;;;;;;;;;15.50;35.30;;;;;;8297256;28;19922;-47
2021/12/21 03:11:06;;;;;;;;;;;15.50;35.30;;;;;;8297318;28;19925;-48
2021/12/21 03:15:07;;;;;;;;;;;15.50;35.30;;;;;;8301104;28;19924;-47
2021/12/21 03:19:08;;;;;;;;;;;15.50;35.30;;;;;;8303725;28;20016;-48
2021/12/21 03:23:09;;;;;;;;;;;15.50;35.40;;;;;;8303061;28;20298;-47
2021/12/21 03:27:09;;;;;;;;;;;15.50;35.40;;;;;;8303310;28;19914;-47
2021/12/21 03:31:10;;;;;;;;;;;15.50;35.90;;;;;;8302686;28;20016;-46
2021/12/21 03:35:10;;;;;;;;;;;15.50;35.40;;;;;;8303246;28;19922;-47
2021/12/21 03:39:17;;;;;;;;;;;15.50;35.30;;;;;;8302900;28;20418;-48
2021/12/21 03:43:17;;;;;;;;;;;15.40;35.30;;;;;;8304814;28;19921;-48
2021/12/21 03:47:18;;;;;;;;;;;15.40;35.30;;;;;;8302550;28;19928;-48
2021/12/21 03:51:19;;;;;;;;;;;15.40;35.30;;;;;;8302680;28;19932;-47
2021/12/21 03:55:20;;;;;;;;;;;15.40;35.30;;;;;;8302305;28;19922;-47
2021/12/21 03:59:21;;;;;;;;;;;15.40;35.30;;;;;;8302370;28;19918;-47
2021/12/21 04:03:21;;;;;;;;;;;15.40;35.30;;;;;;8302294;28;19926;-47
2021/12/21 04:07:22;;;;;;;;;;;15.40;35.40;;;;;;8301691;28;19960;-47
2021/12/21 04:11:22;;;;;;;;;;;15.40;35.40;;;;;;8301946;28;19989;-47
2021/12/21 04:15:27;;;;;;;;;;;15.40;35.40;;;;;;8302034;28;19976;-48
2021/12/21 04:19:27;;;;;;;;;;;15.40;35.40;;;;;;8301248;28;20004;-47
2021/12/21 04:23:28;;;;;;;;;;;15.40;35.30;;;;;;8301856;28;20290;-47
2021/12/21 04:27:28;;;;;;;;;;;15.40;35.30;;;;;;8300911;28;19925;-48
2021/12/21 04:31:28;;;;;;;;;;;15.50;35.30;;;;;;8301065;28;19972;-48
2021/12/21 04:35:29;;;;;;;;;;;15.50;35.20;;;;;;8301695;28;20011;-48
2021/12/21 04:39:39;;;;;;;;;;;15.50;35.20;;;;;;8301338;28;20011;-47
2021/12/21 04:43:40;;;;;;;;;;;15.50;35.20;;;;;;8301915;28;19917;-47
2021/12/21 04:47:40;;;;;;;;;;;15.50;35.20;;;;;;8301012;28;20425;-47
2021/12/21 04:51:41;;;;;;;;;;;15.50;35.10;;;;;;8300592;28;19976;-48
2021/12/21 04:55:41;;;;;;;;;;;15.50;35.10;;;;;;8300293;28;19921;-50
2021/12/21 04:59:42;;;;;;;;;;;15.50;35.20;;;;;;8300488;28;19921;-47
2021/12/21 05:03:42;;;;;;;;;;;15.50;35.20;;;;;;8299786;28;19917;-48
2021/12/21 05:07:47;;;;;;;;;;;15.50;35.20;;;;;;8299833;28;19924;-47
2021/12/21 05:11:48;;;;;;;;;;;15.50;35.20;;;;;;8300353;28;20374;-49
2021/12/21 05:15:48;;;;;;;;;;;15.50;35.20;;;;;;8300312;28;19928;-48
2021/12/21 05:19:49;;;;;;;;;;;15.50;35.30;;;;;;8299528;28;20008;-47
2021/12/21 05:23:49;;;;;;;;;;;15.40;35.20;;;;;;8299685;28;19917;-47
2021/12/21 05:27:50;;;;;;;;;;;15.50;35.30;;;;;;8299652;28;19921;-46
2021/12/21 05:31:50;;;;;;;;;;;15.40;35.20;;;;;;8298983;28;19932;-48
2021/12/21 05:35:51;;;;;;;;;;;15.40;35.20;;;;;;8299560;28;20287;-48
2021/12/21 05:40:16;;;;;;;;;;;15.40;35.20;;;;;;8298315;28;20271;-48
2021/12/21 05:44:21;;;;;;;;;;;15.40;35.30;;;;;;8298942;28;19917;-48
2021/12/21 05:48:21;;;;;;;;;;;15.40;35.30;;;;;;8299301;28;20011;-47
2021/12/21 05:52:22;;;;;;;;;;;15.40;35.30;;;;;;8298249;28;19929;-47
2021/12/21 05:56:22;;;;;;;;;;;15.40;35.30;;;;;;8298744;28;19914;-47
2021/12/21 06:00:24;;;;;;;;;;;15.40;35.30;;;;;;8299107;28;19920;-47
2021/12/21 06:04:25;;;;;;;;;;;15.30;35.30;;;;;;8298072;28;19917;-47
2021/12/21 06:08:26;;;;;;;;;;;15.30;35.30;;;;;;8298579;28;19964;-50
2021/12/21 06:12:54;;;;;;;;;;;15.30;35.30;;;;;;8298365;28;20358;-47
2021/12/21 06:29:34;;;;;;;;;;;15.30;35.40;;;;;;8302022;28;19922;-48
2021/12/21 06:33:35;;;;;;;;;;;15.30;35.30;;;;;;8297633;28;20500;-52
2021/12/21 06:37:35;;;;;;;;;;;15.30;35.30;;;;;;8297114;28;20009;-49
2021/12/21 06:41:36;;;;;;;;;;;15.30;35.30;;;;;;8297882;28;20578;-48
2021/12/21 06:45:47;;;;;;;;;;;15.30;35.40;;;;;;8298129;28;19921;-48
2021/12/21 06:54:06;;;;;;;;;;;15.30;35.30;;;;;;8302609;28;20607;-47
2021/12/21 06:58:07;;;;;;;;;;;15.30;35.30;;;;;;8297447;28;19917;-49
2021/12/21 07:02:08;;;;;;;;;;;15.40;35.30;;;;;;8296919;28;19925;-47
2021/12/21 07:06:09;;;;;;;;;;;15.40;35.30;;;;;;8297423;28;19914;-48
2021/12/21 07:10:19;;;;;;;;;;;15.40;35.30;;;;;;8296631;28;19949;-47
2021/12/21 07:18:38;;;;;;;;;;;15.40;35.20;;;;;;8297322;28;19925;-48
2021/12/21 07:22:39;;;;;;;;;;;15.40;35.20;;;;;;8296559;28;19953;-48
2021/12/21 07:26:39;;;;;;;;;;;15.40;35.20;;;;;;8297165;28;19914;-47
2021/12/21 07:30:40;;;;;;;;;;;15.40;35.20;;;;;;8296964;28;20004;-50
2021/12/21 07:34:40;;;;;;;;;;;15.40;35.20;;;;;;8296435;28;20333;-51
2021/12/21 07:38:41;;;;;;;;;;;15.40;35.20;;;;;;8296983;28;19924;-49
2021/12/21 07:42:41;;;;;;;;;;;15.40;35.30;;;;;;8296747;28;19926;-48
2021/12/21 07:46:42;;;;;;;;;;;15.40;35.20;;;;;;8296241;28;20274;-50
2021/12/21 07:50:43;;;;;;;;;;;15.40;35.20;;;;;;8296756;28;19936;-48
2021/12/21 07:54:44;;;;;;;;;;;15.40;35.20;;;;;;8296331;28;19918;-49
2021/12/21 07:58:45;;;;;;;;;;;15.40;35.20;;;;;;8296025;28;20271;-48
2021/12/21 08:02:46;;;;;;;;;;;15.40;35.50;;;;;;8300436;28;20329;-48
2021/12/21 08:06:48;;;;;;;;;;;15.40;35.30;;;;;;8302511;28;19918;-49
2021/12/21 08:10:55;;;;;;;;;;;15.30;35.30;;;;;;8301591;28;19930;-49
2021/12/21 08:14:55;;;;;;;;;;;15.30;35.30;;;;;;8302768;28;20329;-49
2021/12/21 08:18:56;;;;;;;;;;;15.30;35.30;;;;;;8302225;28;19914;-50
2021/12/21 08:22:57;;;;;;;;;;;15.30;35.30;;;;;;8301195;28;19924;-49
2021/12/21 08:26:59;;;;;;;;;;;15.30;35.30;;;;;;8301786;28;20012;-48
2021/12/21 08:30:59;;;;;;;;;;;15.30;35.30;;;;;;8302084;28;19933;-49
2021/12/21 08:35:00;;;;;;;;;;;15.30;35.30;;;;;;8300989;28;19968;-49
2021/12/21 08:39:00;;;;;;;;;;;15.30;35.30;;;;;;8301830;28;19920;-48
2021/12/21 08:43:01;;;;;;;;;;;15.30;35.30;;;;;;8301281;28;19918;-48
2021/12/21 08:47:03;;;;;;;;;;;15.30;35.30;;;;;;8300763;28;19933;-48
2021/12/21 08:51:04;;;;;;;;;;;15.30;35.30;;;;;;8300927;28;20150;-48
2021/12/21 08:55:11;;;;;;;;;;;15.30;35.40;;;;;;8300465;28;19914;-48
2021/12/21 08:59:12;;;;;;;;;;;15.30;35.30;;;;;;8300690;28;19926;-47
2021/12/21 09:03:13;;;;;;;;;;;15.30;35.30;;;;;;8300801;28;19914;-47
2021/12/21 09:07:13;;;;;;;;;;;15.30;35.30;;;;;;8300088;28;20410;-47
2021/12/21 09:11:14;;;;;;;;;;;15.30;35.30;;;;;;8299904;28;20315;-49
2021/12/21 09:15:16;;;;;;;;;;;15.30;35.30;;;;;;8300259;28;20009;-48
2021/12/21 09:19:16;;;;;;;;;;;15.30;35.30;;;;;;8299649;28;20308;-48
2021/12/21 09:23:17;;;;;;;;;;;15.40;35.30;;;;;;8299890;28;20015;-48
2021/12/21 09:27:17;;;;;;;;;;;15.40;35.30;;;;;;8300256;28;20000;-46
2021/12/21 09:31:18;;;;;;;;;;;15.40;35.20;;;;;;8299232;28;19933;-48
2021/12/21 09:35:19;;;;;;;;;;;15.50;35.30;;;;;;8299911;28;19917;-47
2021/12/21 09:39:19;;;;;;;;;;;15.50;35.20;;;;;;8299512;28;19968;-47
2021/12/21 09:43:20;;;;;;;;;;;15.50;35.20;;;;;;8298911;28;19924;-49
2021/12/21 09:47:20;;;;;;;;;;;15.50;35.20;;;;;;8299498;28;19929;-49
2021/12/21 09:51:21;;;;;;;;;;;15.50;35.20;;;;;;8299188;28;19932;-48
2021/12/21 09:55:21;;;;;;;;;;;15.50;35.20;;;;;;8298578;28;19914;-47
2021/12/21 09:59:22;;;;;;;;;;;15.50;35.10;;;;;;8299162;28;19928;-47
2021/12/21 10:03:22;;;;;;;;;;;15.40;35.20;;;;;;8298783;28;19921;-51
2021/12/21 10:07:24;;;;;;;;;;;15.50;35.20;;;;;;8298253;28;19921;-48
2021/12/21 10:11:24;;;;;;;;;;;15.50;35.20;;;;;;8298270;28;20059;-49
2021/12/21 10:15:25;;;;;;;;;;;15.50;35.20;;;;;;8298387;28;20366;-48
2021/12/21 10:19:25;;;;;;;;;;;15.50;35.30;;;;;;8297777;28;19917;-50
2021/12/21 10:23:28;;;;;;;;;;;15.40;35.20;;;;;;8297638;28;20008;-51
2021/12/21 10:27:28;;;;;;;;;;;15.40;35.20;;;;;;8298463;28;20271;-48
2021/12/21 10:31:30;;;;;;;;;;;15.40;35.20;;;;;;8297504;28;19926;-48
2021/12/21 10:35:31;;;;;;;;;;;15.50;35.20;;;;;;8298058;28;20008;-47
2021/12/21 10:39:33;;;;;;;;;;;15.40;35.20;;;;;;8297853;28;20425;-47
2021/12/21 10:43:33;;;;;;;;;;;15.40;35.20;;;;;;8297180;28;19941;-47
2021/12/21 10:47:34;;;;;;;;;;;15.40;35.20;;;;;;8298183;28;19921;-49
2021/12/21 10:51:35;;;;;;;;;;;15.40;35.20;;;;;;8297311;28;20381;-47
2021/12/21 10:55:37;;;;;;;;;;;15.40;35.20;;;;;;8296808;28;19922;-49
2021/12/21 10:59:39;;;;;;;;;;;15.40;35.70;;;;;;8297273;28;20347;-47
2021/12/21 11:03:45;;;;;;;;;;;15.40;35.30;;;;;;8297347;28;19917;-48
2021/12/21 11:07:53;;;;;;;;;;;15.40;35.20;;;;;;8297912;28;19917;-47
2021/12/21 11:11:55;;;;;;;;;;;15.40;35.20;;;;;;8298342;28;19926;-48
2021/12/21 11:15:57;;;;;;;;;;;15.40;35.20;;;;;;8297223;28;20023;-48
2021/12/21 11:19:57;;;;;;;;;;;15.40;35.10;;;;;;8296540;28;19918;-48
2021/12/21 11:24:00;;;;;;;;;;;15.40;35.30;;;;;;8296887;28;19924;-48
2021/12/21 11:28:02;;;;;;;;;;;15.40;35.20;;;;;;8297177;28;20210;-49
2021/12/21 11:32:03;;;;;;;;;;;15.40;35.30;;;;;;8296301;28;20382;-48
2021/12/21 11:40:27;;;;;;;;;;;15.40;35.20;;;;;;8302645;28;20329;-47
2021/12/21 11:44:36;;;;;;;;;;;15.40;35.20;;;;;;8303101;28;20385;-48
2021/12/21 11:48:39;;;;;;;;;;;15.40;35.20;;;;;;8302816;28;19914;-49
2021/12/21 11:52:45;;;;;;;;;;;15.40;35.20;;;;;;8302470;28;19921;-47
2021/12/21 11:56:45;;;;;;;;;;;15.40;35.20;;;;;;8302546;28;20286;-47
2021/12/21 12:00:48;;;;;;;;;;;15.40;35.20;;;;;;8302224;28;19917;-48
2021/12/21 12:04:55;;;;;;;;;;;15.40;35.20;;;;;;8301705;28;20359;-47
2021/12/21 12:09:00;;;;;;;;;;;15.40;35.20;;;;;;8302243;28;19948;-48
2021/12/21 12:13:17;;;;;;;;;;;15.50;35.20;;;;;;8302091;28;19921;-49
2021/12/21 12:17:22;;;;;;;;;;;15.50;35.10;;;;;;8301668;28;19918;-47
2021/12/21 12:21:24;;;;;;;;;;;15.50;35.00;;;;;;8301829;28;19922;-47
2021/12/21 12:25:26;;;;;;;;;;;15.50;35.00;;;;;;8301360;28;20295;-48
2021/12/21 12:29:27;;;;;;;;;;;15.50;35.50;;;;;;8301685;28;19917;-48
2021/12/21 12:33:38;;;;;;;;;;;15.50;35.00;;;;;;8301465;28;19922;-47
2021/12/21 12:37:48;;;;;;;;;;;15.50;35.00;;;;;;8300821;28;20004;-48
2021/12/21 12:41:48;;;;;;;;;;;15.50;35.00;;;;;;8301021;28;19972;-48
2021/12/21 12:45:51;;;;;;;;;;;15.50;35.00;;;;;;8300497;28;19921;-48
2021/12/21 12:49:54;;;;;;;;;;;15.50;35.00;;;;;;8300288;28;19964;-49
2021/12/21 12:53:54;;;;;;;;;;;15.50;35.00;;;;;;8300893;28;19922;-48
2021/12/21 12:57:58;;;;;;;;;;;15.60;35.10;;;;;;8300826;28;19924;-48
2021/12/21 13:01:59;;;;;;;;;;;15.50;35.00;;;;;;8300003;28;20381;-48
2021/12/21 13:06:01;;;;;;;;;;;15.50;35.10;;;;;;8300639;28;19925;-50
2021/12/21 13:10:03;;;;;;;;;;;15.50;35.10;;;;;;8300462;28;20271;-50
2021/12/21 13:14:04;;;;;;;;;;;15.50;35.10;;;;;;8300001;28;19928;-51
2021/12/21 13:18:06;;;;;;;;;;;15.50;35.10;;;;;;8300053;28;19917;-49
2021/12/21 13:22:06;;;;;;;;;;;15.50;35.10;;;;;;8300118;28;19924;-51
2021/12/21 13:26:09;;;;;;;;;;;15.50;35.00;;;;;;8299322;28;19921;-49
2021/12/21 13:30:10;;;;;;;;;;;15.50;35.10;;;;;;8299704;28;19918;-49
2021/12/21 13:34:10;;;;;;;;;;;15.50;35.10;;;;;;8299440;28;20008;-47
2021/12/21 13:38:14;;;;;;;;;;;15.50;35.00;;;;;;8299834;28;19929;-50
2021/12/21 13:42:18;;;;;;;;;;;15.50;35.10;;;;;;8299454;28;19957;-50
2021/12/21 13:46:19;;;;;;;;;;;15.50;35.10;;;;;;8299024;28;20347;-51
2021/12/21 13:50:23;;;;;;;;;;;15.50;35.10;;;;;;8299293;28;19933;-49
2021/12/21 13:54:25;;;;;;;;;;;15.50;35.10;;;;;;8298999;28;19921;-49
2021/12/21 13:58:27;;;;;;;;;;;15.50;35.20;;;;;;8297662;28;19918;-52
2021/12/21 14:02:35;;;;;;;;;;;15.50;35.10;;;;;;8297184;28;22122;-53
2021/12/21 14:06:36;;;;;;;;;;;15.50;35.10;;;;;;8300564;28;19913;-50
2021/12/21 14:10:41;;;;;;;;;;;15.50;35.10;;;;;;8297863;28;19917;-47
2021/12/21 14:14:42;;;;;;;;;;;15.50;35.10;;;;;;8298511;28;19913;-50
2021/12/21 14:18:45;;;;;;;;;;;15.50;35.10;;;;;;8298491;28;19921;-49
2021/12/21 14:22:46;;;;;;;;;;;15.40;35.10;;;;;;8297834;28;19924;-51
2021/12/21 14:26:46;;;;;;;;;;;15.50;35.10;;;;;;8298117;28;19925;-51
2021/12/21 14:30:47;;;;;;;;;;;15.50;35.10;;;;;;8297797;28;20044;-47
2021/12/21 14:34:50;;;;;;;;;;;15.50;35.10;;;;;;8297308;28;19924;-49
2021/12/21 14:38:52;;;;;;;;;;;15.40;35.10;;;;;;8298093;28;19918;-48
2021/12/21 14:42:52;;;;;;;;;;;15.40;35.10;;;;;;8297845;28;19943;-51
2021/12/21 14:47:13;;;;;;;;;;;15.40;35.10;;;;;;8297024;28;19921;-49
2021/12/21 14:51:15;;;;;;;;;;;15.40;35.00;;;;;;8296794;28;20264;-49
2021/12/21 14:55:22;;;;;;;;;;;15.50;35.10;;;;;;8296728;28;19918;-50
2021/12/21 14:59:33;;;;;;;;;;;15.40;35.00;;;;;;8297853;28;19925;-50
2021/12/21 15:03:40;;;;;;;;;;;15.40;35.00;;;;;;8297498;28;19948;-52
2021/12/21 15:07:41;;;;;;;;;;;15.40;35.00;;;;;;8296787;28;19917;-49
2021/12/21 15:11:49;;;;;;;;;;;15.40;35.60;;;;;;8302231;28;19925;-48
2021/12/21 15:15:50;;;;;;;;;;;15.40;35.00;;;;;;8303926;28;19960;-48
2021/12/21 15:19:50;;;;;;;;;;;15.50;35.00;;;;;;8303655;28;19996;-51
2021/12/21 15:23:53;;;;;;;;;;;15.50;35.50;;;;;;8303710;28;19918;-50
2021/12/21 15:27:54;;;;;;;;;;;15.50;35.00;;;;;;8303529;28;19924;-50
2021/12/21 15:31:55;;;;;;;;;;;15.50;34.90;;;;;;8302626;28;19932;-51
2021/12/21 15:35:55;;;;;;;;;;;15.50;34.90;;;;;;8303605;28;19913;-49
2021/12/21 15:39:56;;;;;;;;;;;15.60;34.90;;;;;;8303505;28;19925;-51
2021/12/21 15:43:58;;;;;;;;;;;15.60;34.90;;;;;;8302476;28;20378;-50
2021/12/21 15:47:59;;;;;;;;;;;15.50;34.80;;;;;;8303090;28;19921;-48
2021/12/21 15:52:00;;;;;;;;;;;15.60;34.80;;;;;;8302655;28;20020;-49
2021/12/21 15:56:01;;;;;;;;;;;15.50;34.80;;;;;;8302167;28;20276;-51
2021/12/21 16:00:04;;;;;;;;;;;15.50;34.90;;;;;;8302816;28;19917;-50
2021/12/21 16:04:05;;;;;;;;;;;15.50;34.80;;;;;;8302731;28;19917;-48
2021/12/21 16:08:05;;;;;;;;;;;15.50;34.80;;;;;;8302199;28;20359;-48
2021/12/21 16:12:06;;;;;;;;;;;15.50;34.90;;;;;;8302661;28;19925;-48
2021/12/21 16:16:06;;;;;;;;;;;15.50;34.90;;;;;;8302579;28;19918;-50
2021/12/21 16:20:08;;;;;;;;;;;15.50;34.80;;;;;;8302219;28;20383;-49
2021/12/21 16:24:09;;;;;;;;;;;15.50;34.80;;;;;;8301141;28;20004;-51
2021/12/21 16:28:09;;;;;;;;;;;15.50;34.90;;;;;;8301885;28;19925;-52
2021/12/21 16:32:10;;;;;;;;;;;15.50;34.90;;;;;;8301199;28;19949;-49
2021/12/21 16:36:11;;;;;;;;;;;15.50;34.90;;;;;;8301081;28;20291;-50
2021/12/21 16:40:11;;;;;;;;;;;15.50;34.90;;;;;;8301133;28;20307;-49
2021/12/21 16:44:12;;;;;;;;;;;15.50;34.90;;;;;;8301413;28;19925;-49
2021/12/21 16:48:12;;;;;;;;;;;15.50;34.90;;;;;;8301456;28;19976;-49
2021/12/21 16:52:15;;;;;;;;;;;15.40;34.90;;;;;;8300340;28;19996;-50
2021/12/21 16:56:15;;;;;;;;;;;15.40;34.90;;;;;;8301054;28;20004;-51
2021/12/21 17:00:16;;;;;;;;;;;15.40;34.90;;;;;;8300890;28;19914;-50
2021/12/21 17:04:16;;;;;;;;;;;15.40;34.90;;;;;;8299220;28;19918;-52
2021/12/21 17:08:18;;;;;;;;;;;15.40;34.90;;;;;;8300808;28;19918;-49
2021/12/21 17:12:18;;;;;;;;;;;15.40;34.90;;;;;;8300159;28;19925;-48
2021/12/21 17:16:20;;;;;;;;;;;15.40;34.90;;;;;;8299857;28;20333;-48
2021/12/21 17:20:21;;;;;;;;;;;15.40;34.90;;;;;;8300441;28;19914;-48
2021/12/21 17:24:21;;;;;;;;;;;15.40;34.90;;;;;;8300203;28;20382;-51
2021/12/21 17:28:22;;;;;;;;;;;15.40;34.80;;;;;;8299417;28;19924;-49
2021/12/21 17:32:22;;;;;;;;;;;15.40;34.90;;;;;;8299833;28;19929;-49
2021/12/21 17:36:24;;;;;;;;;;;15.40;34.90;;;;;;8299440;28;19922;-51
2021/12/21 17:40:25;;;;;;;;;;;15.40;34.90;;;;;;8299264;28;19921;-47
2021/12/21 17:44:26;;;;;;;;;;;15.40;34.80;;;;;;8299229;28;19963;-51
2021/12/21 17:48:26;;;;;;;;;;;15.40;34.90;;;;;;8299372;28;20008;-48
2021/12/21 17:52:27;;;;;;;;;;;15.40;34.90;;;;;;8298783;28;20016;-51
2021/12/21 17:56:27;;;;;;;;;;;15.40;34.90;;;;;;8299395;28;19925;-48
2021/12/21 18:00:28;;;;;;;;;;;15.40;34.80;;;;;;8299510;28;19913;-50
2021/12/21 18:04:28;;;;;;;;;;;15.40;34.90;;;;;;8298425;28;19924;-51
2021/12/21 18:08:30;;;;;;;;;;;15.40;34.80;;;;;;8298828;28;20450;-49
2021/12/21 18:12:30;;;;;;;;;;;15.40;34.80;;;;;;8298785;28;20074;-48
2021/12/21 18:16:30;;;;;;;;;;;15.40;34.90;;;;;;8298332;28;19917;-48
2021/12/21 18:20:33;;;;;;;;;;;15.40;34.90;;;;;;8298692;28;19914;-47
2021/12/21 18:24:34;;;;;;;;;;;15.40;34.80;;;;;;8298505;28;20004;-49
2021/12/21 18:28:34;;;;;;;;;;;15.50;34.80;;;;;;8297693;28;19956;-49
2021/12/21 18:32:35;;;;;;;;;;;15.50;34.80;;;;;;8298319;28;20379;-48
2021/12/21 18:36:35;;;;;;;;;;;15.50;34.90;;;;;;8297731;28;19918;-51
2021/12/21 18:40:36;;;;;;;;;;;15.50;34.70;;;;;;8297546;28;19921;-48
2021/12/21 18:44:40;;;;;;;;;;;15.50;34.80;;;;;;8297695;28;19971;-49
2021/12/21 18:48:42;;;;;;;;;;;15.50;34.80;;;;;;8297964;28;19921;-47
2021/12/21 18:52:45;;;;;;;;;;;15.50;34.80;;;;;;8297114;28;19926;-47
2021/12/21 18:56:46;;;;;;;;;;;15.50;34.80;;;;;;8297574;28;19926;-47
2021/12/21 19:00:49;;;;;;;;;;;15.50;34.70;;;;;;8297704;28;19952;-49
2021/12/21 19:04:49;;;;;;;;;;;15.50;34.80;;;;;;8296983;28;19924;-48
2021/12/21 19:08:50;;;;;;;;;;;15.50;34.70;;;;;;8297390;28;19917;-48
2021/12/21 19:12:51;;;;;;;;;;;15.50;34.70;;;;;;8297260;28;20031;-48
2021/12/21 19:16:51;;;;;;;;;;;15.50;34.70;;;;;;8296869;28;19976;-47
2021/12/21 19:20:52;;;;;;;;;;;15.50;34.70;;;;;;8297715;28;19914;-48
2021/12/21 19:24:53;;;;;;;;;;;15.50;34.80;;;;;;8297322;28;19925;-47
2021/12/21 19:28:53;;;;;;;;;;;15.50;34.70;;;;;;8296561;28;20456;-47
2021/12/21 19:32:54;;;;;;;;;;;15.40;34.70;;;;;;8297036;28;19926;-50
2021/12/21 19:36:55;;;;;;;;;;;15.40;34.70;;;;;;8297046;28;20004;-48
2021/12/21 19:40:55;;;;;;;;;;;15.40;34.70;;;;;;8296720;28;19992;-47
2021/12/21 19:44:55;;;;;;;;;;;15.40;34.70;;;;;;8297052;28;19921;-47
2021/12/21 19:48:56;;;;;;;;;;;15.40;34.70;;;;;;8296938;28;19960;-47
2021/12/21 19:52:57;;;;;;;;;;;15.40;34.70;;;;;;8296381;28;20015;-47
2021/12/21 19:56:57;;;;;;;;;;;15.40;34.80;;;;;;8298543;28;19913;-49
2021/12/21 20:00:58;;;;;;;;;;;15.40;34.80;;;;;;8302325;28;19937;-48
2021/12/21 20:04:58;;;;;;;;;;;15.40;34.80;;;;;;8302143;28;19918;-48
2021/12/21 20:08:59;;;;;;;;;;;15.40;34.70;;;;;;8302758;28;19925;-48
2021/12/21 20:13:03;;;;;;;;;;;15.40;34.80;;;;;;8302342;28;19926;-49
2021/12/21 20:17:05;;;;;;;;;;;15.40;34.80;;;;;;8301792;28;19917;-48
2021/12/21 20:21:06;;;;;;;;;;;15.40;34.80;;;;;;8302475;28;19914;-48
2021/12/21 20:25:06;;;;;;;;;;;15.40;34.80;;;;;;8302160;28;19917;-47
2021/12/21 20:29:07;;;;;;;;;;;15.30;34.70;;;;;;8301213;28;19917;-48
2021/12/21 20:33:08;;;;;;;;;;;15.40;34.80;;;;;;8301717;28;19925;-47
2021/12/21 20:37:10;;;;;;;;;;;15.40;34.80;;;;;;8301613;28;19952;-49
2021/12/21 20:41:11;;;;;;;;;;;15.40;34.90;;;;;;8301301;28;19913;-49
2021/12/21 20:45:12;;;;;;;;;;;15.40;34.90;;;;;;8301847;28;20447;-47
2021/12/21 20:49:12;;;;;;;;;;;15.40;34.80;;;;;;8300640;28;19921;-46
2021/12/21 20:53:14;;;;;;;;;;;15.40;34.80;;;;;;8300977;28;19929;-49
2021/12/21 20:57:14;;;;;;;;;;;15.40;34.80;;;;;;8300945;28;20394;-47
2021/12/21 21:01:15;;;;;;;;;;;15.40;34.80;;;;;;8300463;28;19976;-48
2021/12/21 21:05:16;;;;;;;;;;;15.40;34.80;;;;;;8300588;28;19925;-48
2021/12/21 21:09:17;;;;;;;;;;;15.30;34.70;;;;;;8300213;28;19924;-48
2021/12/21 21:13:18;;;;;;;;;;;15.40;34.80;;;;;;8299861;28;19925;-48
2021/12/21 21:17:18;;;;;;;;;;;15.40;34.80;;;;;;8300805;28;19914;-47
2021/12/21 21:21:19;;;;;;;;;;;15.40;34.70;;;;;;8300137;28;19918;-48
2021/12/21 21:25:20;;;;;;;;;;;15.40;34.70;;;;;;8299541;28;19924;-48
2021/12/21 21:29:21;;;;;;;;;;;15.40;34.70;;;;;;8299892;28;19917;-47
2021/12/21 21:33:22;;;;;;;;;;;15.40;34.70;;;;;;8299982;28;19926;-47
2021/12/21 21:37:23;;;;;;;;;;;15.40;34.60;;;;;;8299471;28;19917;-47
2021/12/21 21:41:23;;;;;;;;;;;15.40;34.60;;;;;;8298277;28;19921;-48
2021/12/21 21:45:25;;;;;;;;;;;15.40;34.60;;;;;;8299763;28;19921;-49
2021/12/21 21:49:28;;;;;;;;;;;15.40;34.60;;;;;;8298960;28;20366;-48
2021/12/21 21:57:36;;;;;;;;;;;15.40;34.60;;;;;;8303630;28;19913;-48
2021/12/21 22:01:38;;;;;;;;;;;15.40;34.60;;;;;;8298418;28;19918;-47
2021/12/21 22:05:39;;;;;;;;;;;15.40;34.70;;;;;;8299131;28;20020;-49
2021/12/21 22:09:39;;;;;;;;;;;15.40;34.70;;;;;;8299041;28;19925;-48
2021/12/21 22:13:40;;;;;;;;;;;15.30;34.70;;;;;;8298047;28;19926;-48
2021/12/21 22:17:40;;;;;;;;;;;15.30;34.70;;;;;;8299156;28;20375;-49
2021/12/21 22:21:41;;;;;;;;;;;15.30;34.70;;;;;;8297759;28;20367;-48
2021/12/21 22:25:42;;;;;;;;;;;15.30;34.70;;;;;;8297756;28;19921;-48
2021/12/21 22:29:42;;;;;;;;;;;15.30;34.60;;;;;;8298357;28;19924;-49
2021/12/21 22:33:44;;;;;;;;;;;15.30;34.70;;;;;;8298131;28;19965;-48
2021/12/21 22:37:45;;;;;;;;;;;15.30;34.70;;;;;;8297772;28;19914;-49
2021/12/21 22:41:45;;;;;;;;;;;15.30;34.70;;;;;;8297890;28;20309;-48
2021/12/21 22:45:46;;;;;;;;;;;15.30;34.70;;;;;;8298183;28;20066;-49
2021/12/21 22:49:47;;;;;;;;;;;15.30;34.70;;;;;;8297353;28;20016;-49
2021/12/21 22:53:47;;;;;;;;;;;15.30;34.70;;;;;;8297818;28;19933;-48
2021/12/21 22:57:47;;;;;;;;;;;15.30;34.60;;;;;;8297961;28;19913;-48
2021/12/21 23:01:49;;;;;;;;;;;15.30;34.60;;;;;;8296288;28;20294;-50
2021/12/21 23:05:50;;;;;;;;;;;15.30;34.60;;;;;;8297163;28;19921;-48
2021/12/21 23:09:50;;;;;;;;;;;15.30;34.60;;;;;;8297345;28;19924;-48
2021/12/21 23:13:50;;;;;;;;;;;15.40;34.60;;;;;;8296928;28;20354;-49
2021/12/21 23:17:51;;;;;;;;;;;15.40;34.60;;;;;;8297969;28;19913;-48
2021/12/21 23:21:51;;;;;;;;;;;15.40;34.60;;;;;;8297304;28;20003;-48
2021/12/21 23:25:52;;;;;;;;;;;15.40;34.60;;;;;;8296668;28;20442;-49
2021/12/21 23:29:52;;;;;;;;;;;15.40;34.60;;;;;;8297501;28;19921;-50
2021/12/21 23:33:55;;;;;;;;;;;15.40;34.60;;;;;;8303475;28;19929;-49
2021/12/21 23:37:55;;;;;;;;;;;15.40;34.50;;;;;;8303264;28;19914;-48
2021/12/21 23:41:56;;;;;;;;;;;15.40;34.50;;;;;;8303518;28;19980;-47
2021/12/21 23:45:58;;;;;;;;;;;15.40;34.60;;;;;;8302796;28;19961;-48
2021/12/21 23:49:58;;;;;;;;;;;15.40;34.60;;;;;;8302498;28;19925;-47
2021/12/21 23:53:59;;;;;;;;;;;15.30;34.50;;;;;;8302859;28;20375;-47
2021/12/21 23:57:59;;;;;;;;;;;15.40;34.60;;;;;;8303036;28;19914;-49
